Front Ariake — C6RX9 — position and weather

sailwx.info

Track history (hours):
 
Tides and Currents Weather Stations Pressure Air Temp Water Temp Dewpoint Dewpoint Depression Visibility Wind Speed Wind Dir Waves Ship Positions

Front Ariake

Last reported at 2016-May-31 15:03 UTC. Time now 2016-Jun-30 01:30 UTC.
Position N 02°10' E 102°01'.
Warning: this ship's position is 29 days out of date.

Length 333 m; draft 11 m.

Type: Tanker. MMSI: 311226956.

Date/timePositionNaut miles runAvg speedWind from/ knotsBaromVisibWave heightAir tempDewpointWater temp
2016-May-31 15:03N 02°10' E 102°01'2213.5
2016-May-31 13:24N 01°56' E 102°18'1113.0
2016-May-31 12:33N 01°51' E 102°28'1412.7
2016-May-31 11:26N 01°45' E 102°40'5811.9
2016-May-31 06:33N 01°13' E 103°29'10 5.0
2016-May-31 04:33N 01°11' E 103°39'0 0.2
2016-May-31 03:33N 01°11' E 103°39'1 1.5
2016-May-31 02:33N 01°10' E 103°40'6 6.4
2016-May-31 01:33N 01°10' E 103°47'1 1.3
2016-May-31 00:27N 01°12' E 103°48'0 0.0
2016-May-30 23:33N 01°12' E 103°48'0 0.0
2016-May-30 22:15N 01°11' E 103°48'0 0.1
2016-May-30 21:33N 01°12' E 103°48'0 0.0
2016-May-30 20:33N 01°12' E 103°48'0 0.1
2016-May-30 19:33N 01°12' E 103°47'0 0.2
2016-May-30 18:33N 01°12' E 103°47'0 0.1
2016-May-30 17:21N 01°11' E 103°47'0 0.1
2016-May-30 16:30N 01°11' E 103°47'0 0.0
2016-May-30 15:24N 01°11' E 103°47'0 0.2
2016-May-30 14:33N 01°11' E 103°47'0 0.1
2016-May-30 13:33N 01°11' E 103°47'0 0.1
2016-May-30 12:27N 01°11' E 103°47'0 0.1
2016-May-30 11:27N 01°11' E 103°47'0 0.1
2016-May-30 10:33N 01°11' E 103°47'0 0.1
2016-May-30 09:30N 01°11' E 103°47'0 0.0
2016-May-30 08:30N 01°11' E 103°47'0 0.0
2016-May-30 07:33N 01°11' E 103°47'0 0.1
2016-May-30 06:30N 01°12' E 103°47'0 0.2
2016-May-30 05:30N 01°12' E 103°48'0 0.1
2016-May-30 04:24N 01°12' E 103°48'0 0.0
2016-May-30 03:15N 01°12' E 103°48'0 0.0
2016-May-30 02:30N 01°12' E 103°48'0 0.0
2016-May-30 01:30N 01°12' E 103°48'0 0.0
2016-May-30 00:27N 01°12' E 103°48'0 0.0
2016-May-29 23:24N 01°12' E 103°48'0 0.0
2016-May-29 22:30N 01°12' E 103°48'0 0.0
2016-May-29 21:12N 01°12' E 103°48'0 0.0
2016-May-29 20:33N 01°12' E 103°48'0 0.0
2016-May-29 19:27N 01°12' E 103°48'0 0.0
2016-May-29 18:33N 01°12' E 103°48'0 0.3
2016-May-29 17:30N 01°11' E 103°47'0 0.1
2016-May-29 16:30N 01°11' E 103°47'0 0.0
2016-May-29 15:30N 01°11' E 103°47'0 0.0
2016-May-29 14:27N 01°11' E 103°47'0 0.0
2016-May-29 13:33N 01°11' E 103°47'0 0.0
2016-May-29 12:15N 01°11' E 103°47'0 0.0
2016-May-29 11:33N 01°11' E 103°47'0 0.0
2016-May-29 10:30N 01°11' E 103°47'0 0.0
2016-May-29 09:33N 01°11' E 103°47'0 0.0
2016-May-29 08:33N 01°11' E 103°47'0 0.0
2016-May-29 07:33N 01°11' E 103°47'2 1.9
2016-May-29 06:33N 01°10' E 103°46'5 4.6
2016-May-29 05:33N 01°06' E 103°44'6 5.6
2016-May-29 04:33N 01°04' E 103°39'7 7.4
2016-May-29 03:32N 01°07' E 103°32'8 7.4
2016-May-29 02:30N 01°11' E 103°25'68 6.2
2016-May-28 15:33N 01°47' E 102°28'9 8.0
2016-May-28 14:25N 01°51' E 102°20'  
Track history (hours):
 
Tides and Currents Weather Stations Pressure Air Temp Water Temp Dewpoint Dewpoint Depression Visibility Wind Speed Wind Dir Waves Ship Positions

Front Ariake

Last reported at 2016-May-31 15:03 UTC. Time now 2016-Jun-30 01:30 UTC.
Position N 02°10' E 102°01'.
Warning: this ship's position is 29 days out of date.

Length 333 m; draft 11 m.

Type: Tanker. MMSI: 311226956.

Date/timePositionNaut miles runAvg speedWind from/ knotsBaromVisibWave heightAir tempDewpointWater temp
2016-May-31 15:03N 02°10' E 102°01'2213.5
2016-May-31 13:24N 01°56' E 102°18'1113.0
2016-May-31 12:33N 01°51' E 102°28'1412.7
2016-May-31 11:26N 01°45' E 102°40'5811.9
2016-May-31 06:33N 01°13' E 103°29'10 5.0
2016-May-31 04:33N 01°11' E 103°39'0 0.2
2016-May-31 03:33N 01°11' E 103°39'1 1.5
2016-May-31 02:33N 01°10' E 103°40'6 6.4
2016-May-31 01:33N 01°10' E 103°47'1 1.3
2016-May-31 00:27N 01°12' E 103°48'0 0.0
2016-May-30 23:33N 01°12' E 103°48'0 0.0
2016-May-30 22:15N 01°11' E 103°48'0 0.1
2016-May-30 21:33N 01°12' E 103°48'0 0.0
2016-May-30 20:33N 01°12' E 103°48'0 0.1
2016-May-30 19:33N 01°12' E 103°47'0 0.2
2016-May-30 18:33N 01°12' E 103°47'0 0.1
2016-May-30 17:21N 01°11' E 103°47'0 0.1
2016-May-30 16:30N 01°11' E 103°47'0 0.0
2016-May-30 15:24N 01°11' E 103°47'0 0.2
2016-May-30 14:33N 01°11' E 103°47'0 0.1
2016-May-30 13:33N 01°11' E 103°47'0 0.1
2016-May-30 12:27N 01°11' E 103°47'0 0.1
2016-May-30 11:27N 01°11' E 103°47'0 0.1
2016-May-30 10:33N 01°11' E 103°47'0 0.1
2016-May-30 09:30N 01°11' E 103°47'0 0.0
2016-May-30 08:30N 01°11' E 103°47'0 0.0
2016-May-30 07:33N 01°11' E 103°47'0 0.1
2016-May-30 06:30N 01°12' E 103°47'0 0.2
2016-May-30 05:30N 01°12' E 103°48'0 0.1
2016-May-30 04:24N 01°12' E 103°48'0 0.0
2016-May-30 03:15N 01°12' E 103°48'0 0.0
2016-May-30 02:30N 01°12' E 103°48'0 0.0
2016-May-30 01:30N 01°12' E 103°48'0 0.0
2016-May-30 00:27N 01°12' E 103°48'0 0.0
2016-May-29 23:24N 01°12' E 103°48'0 0.0
2016-May-29 22:30N 01°12' E 103°48'0 0.0
2016-May-29 21:12N 01°12' E 103°48'0 0.0
2016-May-29 20:33N 01°12' E 103°48'0 0.0
2016-May-29 19:27N 01°12' E 103°48'0 0.0
2016-May-29 18:33N 01°12' E 103°48'0 0.3
2016-May-29 17:30N 01°11' E 103°47'0 0.1
2016-May-29 16:30N 01°11' E 103°47'0 0.0
2016-May-29 15:30N 01°11' E 103°47'0 0.0
2016-May-29 14:27N 01°11' E 103°47'0 0.0
2016-May-29 13:33N 01°11' E 103°47'0 0.0
2016-May-29 12:15N 01°11' E 103°47'0 0.0
2016-May-29 11:33N 01°11' E 103°47'0 0.0
2016-May-29 10:30N 01°11' E 103°47'0 0.0
2016-May-29 09:33N 01°11' E 103°47'0 0.0
2016-May-29 08:33N 01°11' E 103°47'0 0.0
2016-May-29 07:33N 01°11' E 103°47'2 1.9
2016-May-29 06:33N 01°10' E 103°46'5 4.6
2016-May-29 05:33N 01°06' E 103°44'6 5.6
2016-May-29 04:33N 01°04' E 103°39'7 7.4
2016-May-29 03:32N 01°07' E 103°32'8 7.4
2016-May-29 02:30N 01°11' E 103°25'68 6.2
2016-May-28 15:33N 01°47' E 102°28'9 8.0
2016-May-28 14:25N 01°51' E 102°20'  

Dump ship's entire track history